sensor_id;sensor_type;location;lat;lon;timestamp;temperature;humidity
5246;DHT22;54412;51.206;6.888;2023-03-02T00:01:06;4.80;99.90
5246;DHT22;54412;51.206;6.888;2023-03-02T00:03:35;4.70;99.90
5246;DHT22;54412;51.206;6.888;2023-03-02T00:06:03;4.80;99.90
5246;DHT22;54412;51.206;6.888;2023-03-02T00:08:29;4.80;99.90
5246;DHT22;54412;51.206;6.888;2023-03-02T00:10:57;4.90;99.90
5246;DHT22;54412;51.206;6.888;2023-03-02T00:13:23;4.70;99.90
5246;DHT22;54412;51.206;6.888;2023-03-02T00:15:49;4.80;99.90
5246;DHT22;54412;51.206;6.888;2023-03-02T00:18:14;4.90;99.90
5246;DHT22;54412;51.206;6.888;2023-03-02T00:20:40;4.90;99.90
5246;DHT22;54412;51.206;6.888;2023-03-02T00:23:05;4.90;99.90
5246;DHT22;54412;51.206;6.888;2023-03-02T00:25:31;4.90;99.90
5246;DHT22;54412;51.206;6.888;2023-03-02T00:27:57;4.80;99.90
5246;DHT22;54412;51.206;6.888;2023-03-02T00:30:23;4.80;99.90
5246;DHT22;54412;51.206;6.888;2023-03-02T00:32:48;4.70;99.90
5246;DHT22;54412;51.206;6.888;2023-03-02T00:35:14;4.60;99.90
5246;DHT22;54412;51.206;6.888;2023-03-02T00:37:40;4.60;99.90
5246;DHT22;54412;51.206;6.888;2023-03-02T00:40:07;4.50;99.90
5246;DHT22;54412;51.206;6.888;2023-03-02T00:42:35;4.50;99.90
5246;DHT22;54412;51.206;6.888;2023-03-02T00:45:03;4.50;99.90
5246;DHT22;54412;51.206;6.888;2023-03-02T00:47:32;4.40;99.90
5246;DHT22;54412;51.206;6.888;2023-03-02T00:49:59;4.40;99.90
5246;DHT22;54412;51.206;6.888;2023-03-02T00:52:26;4.30;99.90
5246;DHT22;54412;51.206;6.888;2023-03-02T00:54:53;4.10;99.90
5246;DHT22;54412;51.206;6.888;2023-03-02T00:57:18;3.90;99.90
5246;DHT22;54412;51.206;6.888;2023-03-02T00:59:44;4.00;99.90
5246;DHT22;54412;51.206;6.888;2023-03-02T01:02:10;4.00;99.90
5246;DHT22;54412;51.206;6.888;2023-03-02T01:04:38;4.10;99.90
5246;DHT22;54412;51.206;6.888;2023-03-02T01:07:12;4.20;99.90
5246;DHT22;54412;51.206;6.888;2023-03-02T01:09:40;4.10;99.90
5246;DHT22;54412;51.206;6.888;2023-03-02T01:12:08;4.10;99.90
5246;DHT22;54412;51.206;6.888;2023-03-02T01:14:41;4.10;99.90
5246;DHT22;54412;51.206;6.888;2023-03-02T01:17:10;4.10;99.90
5246;DHT22;54412;51.206;6.888;2023-03-02T01:19:36;4.00;99.90
5246;DHT22;54412;51.206;6.888;2023-03-02T01:22:03;4.10;99.90
5246;DHT22;54412;51.206;6.888;2023-03-02T01:24:29;4.10;99.90
5246;DHT22;54412;51.206;6.888;2023-03-02T01:26:55;4.00;99.90
5246;DHT22;54412;51.206;6.888;2023-03-02T01:29:21;4.00;99.90
5246;DHT22;54412;51.206;6.888;2023-03-02T01:31:46;3.90;99.90
5246;DHT22;54412;51.206;6.888;2023-03-02T01:34:12;3.90;99.90
5246;DHT22;54412;51.206;6.888;2023-03-02T01:36:38;3.90;99.90
5246;DHT22;54412;51.206;6.888;2023-03-02T01:39:04;3.80;99.90
5246;DHT22;54412;51.206;6.888;2023-03-02T01:41:30;3.80;99.90
5246;DHT22;54412;51.206;6.888;2023-03-02T01:43:56;3.80;99.90
5246;DHT22;54412;51.206;6.888;2023-03-02T01:46:26;3.70;99.90
5246;DHT22;54412;51.206;6.888;2023-03-02T01:48:58;3.60;99.90
5246;DHT22;54412;51.206;6.888;2023-03-02T01:51:27;3.70;99.90
5246;DHT22;54412;51.206;6.888;2023-03-02T01:54:01;3.70;99.90
5246;DHT22;54412;51.206;6.888;2023-03-02T01:56:33;3.60;99.90
5246;DHT22;54412;51.206;6.888;2023-03-02T01:59:11;3.60;99.90
5246;DHT22;54412;51.206;6.888;2023-03-02T02:01:42;3.60;99.90
5246;DHT22;54412;51.206;6.888;2023-03-02T02:04:12;3.60;99.90
5246;DHT22;54412;51.206;6.888;2023-03-02T02:06:47;3.60;99.90
5246;DHT22;54412;51.206;6.888;2023-03-02T02:09:19;3.60;99.90
5246;DHT22;54412;51.206;6.888;2023-03-02T02:11:48;3.70;99.90
5246;DHT22;54412;51.206;6.888;2023-03-02T02:14:14;3.60;99.90
5246;DHT22;54412;51.206;6.888;2023-03-02T02:16:40;3.60;99.90
5246;DHT22;54412;51.206;6.888;2023-03-02T02:19:23;3.50;99.90
5246;DHT22;54412;51.206;6.888;2023-03-02T02:22:04;3.50;99.90
5246;DHT22;54412;51.206;6.888;2023-03-02T02:24:42;3.50;99.90
5246;DHT22;54412;51.206;6.888;2023-03-02T02:27:12;3.50;99.90
5246;DHT22;54412;51.206;6.888;2023-03-02T02:29:45;3.50;99.90
5246;DHT22;54412;51.206;6.888;2023-03-02T02:32:27;3.30;99.90
5246;DHT22;54412;51.206;6.888;2023-03-02T02:35:23;3.30;99.90
5246;DHT22;54412;51.206;6.888;2023-03-02T02:38:02;3.30;99.90
5246;DHT22;54412;51.206;6.888;2023-03-02T02:40:52;3.30;99.90
5246;DHT22;54412;51.206;6.888;2023-03-02T02:43:22;3.30;99.90
5246;DHT22;54412;51.206;6.888;2023-03-02T02:45:51;3.30;99.90
5246;DHT22;54412;51.206;6.888;2023-03-02T02:48:22;3.30;99.90
5246;DHT22;54412;51.206;6.888;2023-03-02T02:50:50;3.40;99.90
5246;DHT22;54412;51.206;6.888;2023-03-02T02:53:34;3.40;99.90
5246;DHT22;54412;51.206;6.888;2023-03-02T02:56:07;3.50;99.90
5246;DHT22;54412;51.206;6.888;2023-03-02T02:58:47;3.40;99.90
5246;DHT22;54412;51.206;6.888;2023-03-02T03:01:18;3.40;99.90
5246;DHT22;54412;51.206;6.888;2023-03-02T03:03:53;3.50;99.90
5246;DHT22;54412;51.206;6.888;2023-03-02T03:06:25;3.50;99.90
5246;DHT22;54412;51.206;6.888;2023-03-02T03:08:59;3.50;99.90
5246;DHT22;54412;51.206;6.888;2023-03-02T03:11:31;3.40;99.90
5246;DHT22;54412;51.206;6.888;2023-03-02T03:14:03;3.60;99.90
5246;DHT22;54412;51.206;6.888;2023-03-02T03:16:42;3.60;99.90
5246;DHT22;54412;51.206;6.888;2023-03-02T03:19:20;3.70;99.90
5246;DHT22;54412;51.206;6.888;2023-03-02T03:21:51;3.60;99.90
5246;DHT22;54412;51.206;6.888;2023-03-02T03:24:19;3.70;99.90
5246;DHT22;54412;51.206;6.888;2023-03-02T03:26:45;3.70;99.90
5246;DHT22;54412;51.206;6.888;2023-03-02T03:29:13;3.50;99.90
5246;DHT22;54412;51.206;6.888;2023-03-02T03:31:40;3.50;99.90
5246;DHT22;54412;51.206;6.888;2023-03-02T03:34:07;3.50;99.90
5246;DHT22;54412;51.206;6.888;2023-03-02T03:36:34;3.50;99.90
5246;DHT22;54412;51.206;6.888;2023-03-02T03:39:02;3.60;99.90
5246;DHT22;54412;51.206;6.888;2023-03-02T03:41:30;3.50;99.90
5246;DHT22;54412;51.206;6.888;2023-03-02T03:43:55;3.50;99.90
5246;DHT22;54412;51.206;6.888;2023-03-02T03:46:21;3.40;99.90
5246;DHT22;54412;51.206;6.888;2023-03-02T03:48:47;3.50;99.90
5246;DHT22;54412;51.206;6.888;2023-03-02T03:51:13;3.50;99.90
5246;DHT22;54412;51.206;6.888;2023-03-02T03:53:39;3.50;99.90
5246;DHT22;54412;51.206;6.888;2023-03-02T03:56:05;3.40;99.90
5246;DHT22;54412;51.206;6.888;2023-03-02T03:58:31;3.40;99.90
5246;DHT22;54412;51.206;6.888;2023-03-02T04:00:58;3.50;99.90
5246;DHT22;54412;51.206;6.888;2023-03-02T04:03:24;3.50;99.90
5246;DHT22;54412;51.206;6.888;2023-03-02T04:05:50;3.50;99.90
5246;DHT22;54412;51.206;6.888;2023-03-02T04:08:16;3.60;99.90
5246;DHT22;54412;51.206;6.888;2023-03-02T04:10:43;3.60;99.90
5246;DHT22;54412;51.206;6.888;2023-03-02T04:13:09;3.60;99.90
5246;DHT22;54412;51.206;6.888;2023-03-02T04:15:36;3.70;99.90
5246;DHT22;54412;51.206;6.888;2023-03-02T04:18:02;3.60;99.90
5246;DHT22;54412;51.206;6.888;2023-03-02T04:20:28;3.70;99.90
5246;DHT22;54412;51.206;6.888;2023-03-02T04:22:55;3.50;99.90
5246;DHT22;54412;51.206;6.888;2023-03-02T04:25:23;3.50;99.90
5246;DHT22;54412;51.206;6.888;2023-03-02T04:27:52;3.60;99.90
5246;DHT22;54412;51.206;6.888;2023-03-02T04:30:22;3.60;99.90
5246;DHT22;54412;51.206;6.888;2023-03-02T04:32:49;3.50;99.90
5246;DHT22;54412;51.206;6.888;2023-03-02T04:35:15;3.40;99.90
5246;DHT22;54412;51.206;6.888;2023-03-02T04:37:41;3.40;99.90
5246;DHT22;54412;51.206;6.888;2023-03-02T04:40:08;3.50;99.90
5246;DHT22;54412;51.206;6.888;2023-03-02T04:42:36;3.40;99.90
5246;DHT22;54412;51.206;6.888;2023-03-02T04:45:01;3.40;99.90
5246;DHT22;54412;51.206;6.888;2023-03-02T04:47:27;3.40;99.90
5246;DHT22;54412;51.206;6.888;2023-03-02T04:49:53;3.60;99.90
5246;DHT22;54412;51.206;6.888;2023-03-02T04:52:20;3.50;99.90
5246;DHT22;54412;51.206;6.888;2023-03-02T04:54:46;3.50;99.90
5246;DHT22;54412;51.206;6.888;2023-03-02T04:57:12;3.50;99.90
5246;DHT22;54412;51.206;6.888;2023-03-02T04:59:37;3.40;99.90
5246;DHT22;54412;51.206;6.888;2023-03-02T05:02:03;3.40;99.90
5246;DHT22;54412;51.206;6.888;2023-03-02T05:04:30;3.40;99.90
5246;DHT22;54412;51.206;6.888;2023-03-02T05:06:56;3.40;99.90
5246;DHT22;54412;51.206;6.888;2023-03-02T05:09:22;3.40;99.90
5246;DHT22;54412;51.206;6.888;2023-03-02T05:11:53;3.40;99.90
5246;DHT22;54412;51.206;6.888;2023-03-02T05:14:20;3.50;99.90
5246;DHT22;54412;51.206;6.888;2023-03-02T05:16:46;3.50;99.90
5246;DHT22;54412;51.206;6.888;2023-03-02T05:19:12;3.50;99.90
5246;DHT22;54412;51.206;6.888;2023-03-02T05:21:38;3.50;99.90
5246;DHT22;54412;51.206;6.888;2023-03-02T05:24:04;3.60;99.90
5246;DHT22;54412;51.206;6.888;2023-03-02T05:26:30;3.60;99.90
5246;DHT22;54412;51.206;6.888;2023-03-02T05:28:56;3.50;99.90
5246;DHT22;54412;51.206;6.888;2023-03-02T05:31:28;3.50;99.90
5246;DHT22;54412;51.206;6.888;2023-03-02T05:33:56;3.70;99.90
5246;DHT22;54412;51.206;6.888;2023-03-02T05:36:22;3.50;99.90
5246;DHT22;54412;51.206;6.888;2023-03-02T05:38:48;3.40;99.90
5246;DHT22;54412;51.206;6.888;2023-03-02T05:41:14;3.30;99.90
5246;DHT22;54412;51.206;6.888;2023-03-02T05:43:39;3.40;99.90
5246;DHT22;54412;51.206;6.888;2023-03-02T05:46:05;3.40;99.90
5246;DHT22;54412;51.206;6.888;2023-03-02T05:48:31;3.40;99.90
5246;DHT22;54412;51.206;6.888;2023-03-02T05:50:57;3.40;99.90
5246;DHT22;54412;51.206;6.888;2023-03-02T05:53:23;3.40;99.90
5246;DHT22;54412;51.206;6.888;2023-03-02T05:55:50;3.40;99.90
5246;DHT22;54412;51.206;6.888;2023-03-02T05:58:18;3.50;99.90
5246;DHT22;54412;51.206;6.888;2023-03-02T06:00:45;3.50;99.90
5246;DHT22;54412;51.206;6.888;2023-03-02T06:03:12;3.50;99.90
5246;DHT22;54412;51.206;6.888;2023-03-02T06:05:38;3.60;99.90
5246;DHT22;54412;51.206;6.888;2023-03-02T06:08:04;3.70;99.90
5246;DHT22;54412;51.206;6.888;2023-03-02T06:10:31;3.60;99.90
5246;DHT22;54412;51.206;6.888;2023-03-02T06:12:57;3.50;99.90
5246;DHT22;54412;51.206;6.888;2023-03-02T06:15:23;3.50;99.90
5246;DHT22;54412;51.206;6.888;2023-03-02T06:17:49;3.40;99.90
5246;DHT22;54412;51.206;6.888;2023-03-02T06:20:15;3.40;99.90
5246;DHT22;54412;51.206;6.888;2023-03-02T06:22:43;3.40;99.90
5246;DHT22;54412;51.206;6.888;2023-03-02T06:25:13;3.40;99.90
5246;DHT22;54412;51.206;6.888;2023-03-02T06:27:44;3.40;99.90
5246;DHT22;54412;51.206;6.888;2023-03-02T06:30:13;3.40;99.90
5246;DHT22;54412;51.206;6.888;2023-03-02T06:32:40;3.80;99.90
5246;DHT22;54412;51.206;6.888;2023-03-02T06:35:07;3.70;99.90
5246;DHT22;54412;51.206;6.888;2023-03-02T06:37:34;3.70;99.90
5246;DHT22;54412;51.206;6.888;2023-03-02T06:40:00;3.70;99.90
5246;DHT22;54412;51.206;6.888;2023-03-02T06:42:26;3.60;99.90
5246;DHT22;54412;51.206;6.888;2023-03-02T06:44:52;3.50;99.90
5246;DHT22;54412;51.206;6.888;2023-03-02T06:47:22;3.50;99.90
5246;DHT22;54412;51.206;6.888;2023-03-02T06:49:48;3.40;99.90
5246;DHT22;54412;51.206;6.888;2023-03-02T06:52:14;3.40;99.90
5246;DHT22;54412;51.206;6.888;2023-03-02T06:54:40;3.40;99.90
5246;DHT22;54412;51.206;6.888;2023-03-02T06:57:06;3.40;99.90
5246;DHT22;54412;51.206;6.888;2023-03-02T06:59:32;3.40;99.90
5246;DHT22;54412;51.206;6.888;2023-03-02T07:01:58;3.50;99.90
5246;DHT22;54412;51.206;6.888;2023-03-02T07:04:24;3.50;99.90
5246;DHT22;54412;51.206;6.888;2023-03-02T07:06:50;3.50;99.90
5246;DHT22;54412;51.206;6.888;2023-03-02T07:09:15;3.60;99.90
5246;DHT22;54412;51.206;6.888;2023-03-02T07:11:41;3.60;99.90
5246;DHT22;54412;51.206;6.888;2023-03-02T07:14:07;3.70;99.90
5246;DHT22;54412;51.206;6.888;2023-03-02T07:16:33;3.50;99.90
5246;DHT22;54412;51.206;6.888;2023-03-02T07:18:59;3.50;99.90
5246;DHT22;54412;51.206;6.888;2023-03-02T07:21:25;3.50;99.90
5246;DHT22;54412;51.206;6.888;2023-03-02T07:23:52;3.70;99.90
5246;DHT22;54412;51.206;6.888;2023-03-02T07:26:17;3.70;99.90
5246;DHT22;54412;51.206;6.888;2023-03-02T07:28:43;3.70;99.90
5246;DHT22;54412;51.206;6.888;2023-03-02T07:31:10;3.70;99.90
5246;DHT22;54412;51.206;6.888;2023-03-02T07:33:37;3.80;99.90
5246;DHT22;54412;51.206;6.888;2023-03-02T07:36:05;3.80;99.90
5246;DHT22;54412;51.206;6.888;2023-03-02T07:38:32;3.90;99.90
5246;DHT22;54412;51.206;6.888;2023-03-02T07:40:58;3.90;99.90
5246;DHT22;54412;51.206;6.888;2023-03-02T07:43:24;4.00;99.90
5246;DHT22;54412;51.206;6.888;2023-03-02T07:45:51;4.10;99.90
5246;DHT22;54412;51.206;6.888;2023-03-02T07:48:17;4.20;99.90
5246;DHT22;54412;51.206;6.888;2023-03-02T07:50:44;4.40;99.90
5246;DHT22;54412;51.206;6.888;2023-03-02T07:53:10;4.60;99.90
5246;DHT22;54412;51.206;6.888;2023-03-02T07:55:42;4.60;99.90
5246;DHT22;54412;51.206;6.888;2023-03-02T07:58:07;4.80;99.90
5246;DHT22;54412;51.206;6.888;2023-03-02T08:00:33;5.00;99.90
5246;DHT22;54412;51.206;6.888;2023-03-02T08:03:00;5.20;99.90
5246;DHT22;54412;51.206;6.888;2023-03-02T08:05:26;5.30;99.90
5246;DHT22;54412;51.206;6.888;2023-03-02T08:07:52;5.50;99.90
5246;DHT22;54412;51.206;6.888;2023-03-02T08:10:18;5.60;99.90
5246;DHT22;54412;51.206;6.888;2023-03-02T08:12:43;5.80;99.90
5246;DHT22;54412;51.206;6.888;2023-03-02T08:15:10;5.90;99.90
5246;DHT22;54412;51.206;6.888;2023-03-02T08:17:36;6.00;99.90
5246;DHT22;54412;51.206;6.888;2023-03-02T08:20:02;6.10;99.90
5246;DHT22;54412;51.206;6.888;2023-03-02T08:22:29;6.40;99.90
5246;DHT22;54412;51.206;6.888;2023-03-02T08:24:55;6.60;99.90
5246;DHT22;54412;51.206;6.888;2023-03-02T08:27:20;6.70;99.90
5246;DHT22;54412;51.206;6.888;2023-03-02T08:29:46;6.90;99.90
5246;DHT22;54412;51.206;6.888;2023-03-02T08:32:12;6.80;99.90
5246;DHT22;54412;51.206;6.888;2023-03-02T08:34:38;7.10;99.90
5246;DHT22;54412;51.206;6.888;2023-03-02T08:37:03;7.20;99.90
5246;DHT22;54412;51.206;6.888;2023-03-02T08:39:29;7.40;99.90
5246;DHT22;54412;51.206;6.888;2023-03-02T08:41:57;7.60;99.90
5246;DHT22;54412;51.206;6.888;2023-03-02T08:44:23;7.60;99.90
5246;DHT22;54412;51.206;6.888;2023-03-02T08:46:50;7.60;99.90
5246;DHT22;54412;51.206;6.888;2023-03-02T08:49:17;7.70;99.90
5246;DHT22;54412;51.206;6.888;2023-03-02T08:51:44;8.00;99.90
5246;DHT22;54412;51.206;6.888;2023-03-02T08:54:11;8.30;99.90
5246;DHT22;54412;51.206;6.888;2023-03-02T08:56:38;8.70;99.90
5246;DHT22;54412;51.206;6.888;2023-03-02T08:59:08;9.00;99.80
5246;DHT22;54412;51.206;6.888;2023-03-02T09:01:37;9.20;97.80
5246;DHT22;54412;51.206;6.888;2023-03-02T09:04:05;9.50;99.10
5246;DHT22;54412;51.206;6.888;2023-03-02T09:06:36;9.70;98.10
5246;DHT22;54412;51.206;6.888;2023-03-02T09:09:08;9.90;97.00
5246;DHT22;54412;51.206;6.888;2023-03-02T09:11:35;9.80;96.40
5246;DHT22;54412;51.206;6.888;2023-03-02T09:14:02;9.60;96.50
5246;DHT22;54412;51.206;6.888;2023-03-02T09:16:28;9.80;95.10
5246;DHT22;54412;51.206;6.888;2023-03-02T09:18:54;9.70;94.80
5246;DHT22;54412;51.206;6.888;2023-03-02T09:21:20;9.90;95.70
5246;DHT22;54412;51.206;6.888;2023-03-02T09:23:46;10.00;94.10
5246;DHT22;54412;51.206;6.888;2023-03-02T09:26:12;10.20;94.20
5246;DHT22;54412;51.206;6.888;2023-03-02T09:28:38;10.40;93.80
5246;DHT22;54412;51.206;6.888;2023-03-02T09:31:05;10.80;93.60
5246;DHT22;54412;51.206;6.888;2023-03-02T09:33:33;11.00;92.50
5246;DHT22;54412;51.206;6.888;2023-03-02T09:35:59;11.00;91.00
5246;DHT22;54412;51.206;6.888;2023-03-02T09:38:26;11.10;91.20
5246;DHT22;54412;51.206;6.888;2023-03-02T09:46:41;11.00;89.60
5246;DHT22;54412;51.206;6.888;2023-03-02T09:49:45;11.20;89.50
5246;DHT22;54412;51.206;6.888;2023-03-02T09:52:49;11.40;88.40
5246;DHT22;54412;51.206;6.888;2023-03-02T09:55:27;11.40;86.20
5246;DHT22;54412;51.206;6.888;2023-03-02T09:58:00;11.30;86.00
5246;DHT22;54412;51.206;6.888;2023-03-02T10:00:32;11.70;85.90
5246;DHT22;54412;51.206;6.888;2023-03-02T10:03:04;11.80;86.10
5246;DHT22;54412;51.206;6.888;2023-03-02T10:05:52;11.80;83.50
5246;DHT22;54412;51.206;6.888;2023-03-02T10:08:24;11.70;84.50
5246;DHT22;54412;51.206;6.888;2023-03-02T10:10:56;12.20;85.10
5246;DHT22;54412;51.206;6.888;2023-03-02T10:19:28;12.50;79.50
5246;DHT22;54412;51.206;6.888;2023-03-02T10:22:16;12.60;79.40
5246;DHT22;54412;51.206;6.888;2023-03-02T10:27:37;12.80;82.70
5246;DHT22;54412;51.206;6.888;2023-03-02T10:32:51;12.70;80.30
5246;DHT22;54412;51.206;6.888;2023-03-02T10:35:19;12.80;80.70
5246;DHT22;54412;51.206;6.888;2023-03-02T10:37:51;12.80;77.80
5246;DHT22;54412;51.206;6.888;2023-03-02T10:40:41;12.50;80.50
5246;DHT22;54412;51.206;6.888;2023-03-02T10:43:19;12.50;80.70
5246;DHT22;54412;51.206;6.888;2023-03-02T10:46:07;12.80;78.70
5246;DHT22;54412;51.206;6.888;2023-03-02T10:51:32;13.20;78.60
5246;DHT22;54412;51.206;6.888;2023-03-02T10:54:11;13.40;75.10
5246;DHT22;54412;51.206;6.888;2023-03-02T10:56:41;13.30;76.60
5246;DHT22;54412;51.206;6.888;2023-03-02T11:02:16;13.50;72.30
5246;DHT22;54412;51.206;6.888;2023-03-02T11:04:48;13.60;73.20
5246;DHT22;54412;51.206;6.888;2023-03-02T11:07:34;14.00;74.30
5246;DHT22;54412;51.206;6.888;2023-03-02T11:10:04;14.20;72.50
5246;DHT22;54412;51.206;6.888;2023-03-02T11:12:45;14.00;69.40
5246;DHT22;54412;51.206;6.888;2023-03-02T11:15:23;14.20;70.30
5246;DHT22;54412;51.206;6.888;2023-03-02T11:20:28;14.20;70.50
5246;DHT22;54412;51.206;6.888;2023-03-02T11:23:12;14.10;71.80
5246;DHT22;54412;51.206;6.888;2023-03-02T11:25:54;14.40;72.00
5246;DHT22;54412;51.206;6.888;2023-03-02T11:28:34;14.30;71.00
5246;DHT22;54412;51.206;6.888;2023-03-02T11:31:12;14.60;71.30
5246;DHT22;54412;51.206;6.888;2023-03-02T11:33:57;14.50;69.70
5246;DHT22;54412;51.206;6.888;2023-03-02T11:36:46;14.00;69.10
5246;DHT22;54412;51.206;6.888;2023-03-02T11:39:28;14.40;71.40
5246;DHT22;54412;51.206;6.888;2023-03-02T11:42:17;14.30;68.80
5246;DHT22;54412;51.206;6.888;2023-03-02T11:44:55;14.50;69.20
5246;DHT22;54412;51.206;6.888;2023-03-02T11:47:25;14.30;68.30
5246;DHT22;54412;51.206;6.888;2023-03-02T11:49:54;14.80;69.50
5246;DHT22;54412;51.206;6.888;2023-03-02T11:52:26;14.60;66.80
5246;DHT22;54412;51.206;6.888;2023-03-02T11:55:20;14.70;66.90
5246;DHT22;54412;51.206;6.888;2023-03-02T11:57:58;14.40;67.30
5246;DHT22;54412;51.206;6.888;2023-03-02T12:00:33;14.40;69.00
5246;DHT22;54412;51.206;6.888;2023-03-02T12:05:41;14.40;68.80
5246;DHT22;54412;51.206;6.888;2023-03-02T12:10:42;14.70;73.20
5246;DHT22;54412;51.206;6.888;2023-03-02T12:13:24;14.70;69.80
5246;DHT22;54412;51.206;6.888;2023-03-02T12:15:51;14.70;71.00
5246;DHT22;54412;51.206;6.888;2023-03-02T12:21:10;15.20;71.00
5246;DHT22;54412;51.206;6.888;2023-03-02T12:31:46;15.60;66.40
5246;DHT22;54412;51.206;6.888;2023-03-02T12:36:53;15.10;62.70
5246;DHT22;54412;51.206;6.888;2023-03-02T12:51:47;15.60;62.40
5246;DHT22;54412;51.206;6.888;2023-03-02T12:54:28;15.50;63.60
5246;DHT22;54412;51.206;6.888;2023-03-02T12:57:16;15.70;63.00
5246;DHT22;54412;51.206;6.888;2023-03-02T12:59:54;15.90;63.40
5246;DHT22;54412;51.206;6.888;2023-03-02T13:02:29;16.40;61.60
5246;DHT22;54412;51.206;6.888;2023-03-02T13:05:02;16.40;64.20
5246;DHT22;54412;51.206;6.888;2023-03-02T13:07:39;16.30;60.00
5246;DHT22;54412;51.206;6.888;2023-03-02T13:10:36;16.10;61.90
5246;DHT22;54412;51.206;6.888;2023-03-02T13:13:18;16.30;63.50
5246;DHT22;54412;51.206;6.888;2023-03-02T13:15:53;16.30;59.90
5246;DHT22;54412;51.206;6.888;2023-03-02T13:18:23;15.90;57.50
5246;DHT22;54412;51.206;6.888;2023-03-02T13:20:53;15.80;60.50
5246;DHT22;54412;51.206;6.888;2023-03-02T13:23:19;15.70;59.20
5246;DHT22;54412;51.206;6.888;2023-03-02T13:28:33;16.00;59.70
5246;DHT22;54412;51.206;6.888;2023-03-02T13:31:19;15.90;57.90
5246;DHT22;54412;51.206;6.888;2023-03-02T13:33:48;16.10;59.70
5246;DHT22;54412;51.206;6.888;2023-03-02T13:36:25;15.90;58.80
5246;DHT22;54412;51.206;6.888;2023-03-02T13:38:57;16.10;60.00
5246;DHT22;54412;51.206;6.888;2023-03-02T13:41:30;16.60;58.90
5246;DHT22;54412;51.206;6.888;2023-03-02T13:43:58;16.70;58.50
5246;DHT22;54412;51.206;6.888;2023-03-02T13:46:40;16.50;57.90
5246;DHT22;54412;51.206;6.888;2023-03-02T13:49:06;16.30;58.80
5246;DHT22;54412;51.206;6.888;2023-03-02T13:51:42;16.50;58.40
5246;DHT22;54412;51.206;6.888;2023-03-02T13:54:22;16.50;57.70
5246;DHT22;54412;51.206;6.888;2023-03-02T13:56:52;16.30;57.10
5246;DHT22;54412;51.206;6.888;2023-03-02T13:59:20;16.30;58.40
5246;DHT22;54412;51.206;6.888;2023-03-02T14:01:47;16.40;58.90
5246;DHT22;54412;51.206;6.888;2023-03-02T14:04:14;16.60;57.80
5246;DHT22;54412;51.206;6.888;2023-03-02T14:06:42;16.40;58.40
5246;DHT22;54412;51.206;6.888;2023-03-02T14:09:08;15.90;56.70
5246;DHT22;54412;51.206;6.888;2023-03-02T14:11:37;15.70;57.60
5246;DHT22;54412;51.206;6.888;2023-03-02T14:14:06;15.80;59.80
5246;DHT22;54412;51.206;6.888;2023-03-02T14:16:38;15.80;58.70
5246;DHT22;54412;51.206;6.888;2023-03-02T14:19:04;15.80;58.70
5246;DHT22;54412;51.206;6.888;2023-03-02T14:21:29;16.00;58.40
5246;DHT22;54412;51.206;6.888;2023-03-02T14:23:55;16.00;59.10
5246;DHT22;54412;51.206;6.888;2023-03-02T14:26:40;16.10;57.50
5246;DHT22;54412;51.206;6.888;2023-03-02T14:29:20;15.70;58.00
5246;DHT22;54412;51.206;6.888;2023-03-02T14:31:56;15.60;58.40
5246;DHT22;54412;51.206;6.888;2023-03-02T14:34:33;15.70;59.00
5246;DHT22;54412;51.206;6.888;2023-03-02T14:37:03;15.50;57.40
5246;DHT22;54412;51.206;6.888;2023-03-02T14:39:42;15.60;58.10
5246;DHT22;54412;51.206;6.888;2023-03-02T14:42:13;15.60;57.80
5246;DHT22;54412;51.206;6.888;2023-03-02T14:44:41;15.50;56.60
5246;DHT22;54412;51.206;6.888;2023-03-02T14:47:08;15.10;57.30
5246;DHT22;54412;51.206;6.888;2023-03-02T14:49:35;15.10;58.90
5246;DHT22;54412;51.206;6.888;2023-03-02T14:52:10;15.20;58.50
5246;DHT22;54412;51.206;6.888;2023-03-02T14:54:50;15.10;57.20
5246;DHT22;54412;51.206;6.888;2023-03-02T14:57:22;15.10;58.50
5246;DHT22;54412;51.206;6.888;2023-03-02T14:59:51;15.10;58.30
5246;DHT22;54412;51.206;6.888;2023-03-02T15:02:19;14.60;58.10
5246;DHT22;54412;51.206;6.888;2023-03-02T15:04:46;14.70;59.70
5246;DHT22;54412;51.206;6.888;2023-03-02T15:07:13;14.80;59.30
5246;DHT22;54412;51.206;6.888;2023-03-02T15:09:42;14.70;58.60
5246;DHT22;54412;51.206;6.888;2023-03-02T15:12:09;14.60;59.90
5246;DHT22;54412;51.206;6.888;2023-03-02T15:14:35;14.70;59.30
5246;DHT22;54412;51.206;6.888;2023-03-02T15:17:01;14.30;59.70
5246;DHT22;54412;51.206;6.888;2023-03-02T15:19:27;14.30;60.60
5246;DHT22;54412;51.206;6.888;2023-03-02T15:21:53;13.90;59.60
5246;DHT22;54412;51.206;6.888;2023-03-02T15:24:19;14.10;62.30
5246;DHT22;54412;51.206;6.888;2023-03-02T15:26:51;14.10;62.30
5246;DHT22;54412;51.206;6.888;2023-03-02T15:29:20;13.90;62.30
5246;DHT22;54412;51.206;6.888;2023-03-02T15:31:46;13.80;63.40
5246;DHT22;54412;51.206;6.888;2023-03-02T15:34:12;13.70;61.20
5246;DHT22;54412;51.206;6.888;2023-03-02T15:36:38;13.50;62.90
5246;DHT22;54412;51.206;6.888;2023-03-02T15:39:05;13.40;63.80
5246;DHT22;54412;51.206;6.888;2023-03-02T15:41:33;13.50;63.90
5246;DHT22;54412;51.206;6.888;2023-03-02T15:43:59;13.50;64.60
5246;DHT22;54412;51.206;6.888;2023-03-02T15:46:25;13.50;64.80
5246;DHT22;54412;51.206;6.888;2023-03-02T15:48:52;13.50;65.30
5246;DHT22;54412;51.206;6.888;2023-03-02T15:51:19;13.50;65.10
5246;DHT22;54412;51.206;6.888;2023-03-02T15:53:45;13.40;65.60
5246;DHT22;54412;51.206;6.888;2023-03-02T15:56:13;13.30;66.40
5246;DHT22;54412;51.206;6.888;2023-03-02T15:58:47;13.20;66.50
5246;DHT22;54412;51.206;6.888;2023-03-02T16:01:14;13.00;67.40
5246;DHT22;54412;51.206;6.888;2023-03-02T16:03:43;12.90;67.40
5246;DHT22;54412;51.206;6.888;2023-03-02T16:06:10;12.80;67.50
5246;DHT22;54412;51.206;6.888;2023-03-02T16:08:36;12.70;69.50
5246;DHT22;54412;51.206;6.888;2023-03-02T16:11:04;12.70;69.10
5246;DHT22;54412;51.206;6.888;2023-03-02T16:13:31;12.60;69.40
5246;DHT22;54412;51.206;6.888;2023-03-02T16:16:02;12.60;70.60
5246;DHT22;54412;51.206;6.888;2023-03-02T16:18:30;12.40;70.20
5246;DHT22;54412;51.206;6.888;2023-03-02T16:20:56;12.30;70.70
5246;DHT22;54412;51.206;6.888;2023-03-02T16:23:22;12.30;70.80
5246;DHT22;54412;51.206;6.888;2023-03-02T16:25:48;12.20;70.40
5246;DHT22;54412;51.206;6.888;2023-03-02T16:28:16;12.10;70.60
5246;DHT22;54412;51.206;6.888;2023-03-02T16:30:43;11.90;70.90
5246;DHT22;54412;51.206;6.888;2023-03-02T16:33:13;11.80;71.30
5246;DHT22;54412;51.206;6.888;2023-03-02T16:35:40;11.60;71.70
5246;DHT22;54412;51.206;6.888;2023-03-02T16:38:06;11.60;72.60
5246;DHT22;54412;51.206;6.888;2023-03-02T16:40:35;11.60;73.30
5246;DHT22;54412;51.206;6.888;2023-03-02T16:43:05;11.50;72.80
5246;DHT22;54412;51.206;6.888;2023-03-02T16:45:33;11.60;73.20
5246;DHT22;54412;51.206;6.888;2023-03-02T16:47:59;11.40;73.60
5246;DHT22;54412;51.206;6.888;2023-03-02T16:50:25;11.30;74.30
5246;DHT22;54412;51.206;6.888;2023-03-02T16:52:50;11.30;74.50
5246;DHT22;54412;51.206;6.888;2023-03-02T16:55:17;11.30;75.00
5246;DHT22;54412;51.206;6.888;2023-03-02T16:57:44;11.20;75.50
5246;DHT22;54412;51.206;6.888;2023-03-02T17:00:13;11.10;75.70
5246;DHT22;54412;51.206;6.888;2023-03-02T17:02:41;11.10;76.00
5246;DHT22;54412;51.206;6.888;2023-03-02T17:05:08;11.10;75.90
5246;DHT22;54412;51.206;6.888;2023-03-02T17:07:35;11.10;76.70
5246;DHT22;54412;51.206;6.888;2023-03-02T17:10:01;11.10;77.00